sensor_id;sensor_type;location;lat;lon;timestamp;temperature;humidity
59881;DHT22;45751;51.380;10.326;2022-11-25T00:01:30;4.90;99.90
59881;DHT22;45751;51.380;10.326;2022-11-25T00:03:58;4.90;99.90
59881;DHT22;45751;51.380;10.326;2022-11-25T00:06:32;4.90;99.90
59881;DHT22;45751;51.380;10.326;2022-11-25T00:09:09;4.90;99.90
59881;DHT22;45751;51.380;10.326;2022-11-25T00:11:38;4.90;99.90
59881;DHT22;45751;51.380;10.326;2022-11-25T00:14:08;4.90;99.90
59881;DHT22;45751;51.380;10.326;2022-11-25T00:16:36;4.80;99.90
59881;DHT22;45751;51.380;10.326;2022-11-25T00:19:13;4.80;99.90
59881;DHT22;45751;51.380;10.326;2022-11-25T00:21:40;4.90;99.90
59881;DHT22;45751;51.380;10.326;2022-11-25T00:24:13;4.80;99.90
59881;DHT22;45751;51.380;10.326;2022-11-25T00:26:40;4.80;99.90
59881;DHT22;45751;51.380;10.326;2022-11-25T00:29:10;4.80;99.90
59881;DHT22;45751;51.380;10.326;2022-11-25T00:31:38;4.90;99.90
59881;DHT22;45751;51.380;10.326;2022-11-25T00:34:11;4.90;99.90
59881;DHT22;45751;51.380;10.326;2022-11-25T00:36:38;4.90;99.90
59881;DHT22;45751;51.380;10.326;2022-11-25T00:39:12;4.80;99.90
59881;DHT22;45751;51.380;10.326;2022-11-25T00:41:45;4.80;99.90
59881;DHT22;45751;51.380;10.326;2022-11-25T00:44:34;4.80;99.90
59881;DHT22;45751;51.380;10.326;2022-11-25T00:49:31;4.80;99.90
59881;DHT22;45751;51.380;10.326;2022-11-25T00:52:02;4.70;99.90
59881;DHT22;45751;51.380;10.326;2022-11-25T00:54:29;4.80;99.90
59881;DHT22;45751;51.380;10.326;2022-11-25T00:56:57;4.80;99.90
59881;DHT22;45751;51.380;10.326;2022-11-25T00:59:28;4.70;99.90
59881;DHT22;45751;51.380;10.326;2022-11-25T01:01:58;4.70;99.90
59881;DHT22;45751;51.380;10.326;2022-11-25T01:04:27;4.70;99.90
59881;DHT22;45751;51.380;10.326;2022-11-25T01:06:54;4.70;99.90
59881;DHT22;45751;51.380;10.326;2022-11-25T01:09:22;4.70;99.90
59881;DHT22;45751;51.380;10.326;2022-11-25T01:11:49;4.70;99.90
59881;DHT22;45751;51.380;10.326;2022-11-25T01:14:19;4.60;99.90
59881;DHT22;45751;51.380;10.326;2022-11-25T01:16:47;4.70;99.90
59881;DHT22;45751;51.380;10.326;2022-11-25T01:19:15;4.70;99.90
59881;DHT22;45751;51.380;10.326;2022-11-25T01:21:42;4.70;99.90
59881;DHT22;45751;51.380;10.326;2022-11-25T01:24:12;4.70;99.90
59881;DHT22;45751;51.380;10.326;2022-11-25T01:26:40;4.70;99.90
59881;DHT22;45751;51.380;10.326;2022-11-25T01:29:13;4.70;99.90
59881;DHT22;45751;51.380;10.326;2022-11-25T01:31:40;4.70;99.90
59881;DHT22;45751;51.380;10.326;2022-11-25T01:34:20;4.70;99.90
59881;DHT22;45751;51.380;10.326;2022-11-25T01:36:48;4.70;99.90
59881;DHT22;45751;51.380;10.326;2022-11-25T01:39:23;4.70;99.90
59881;DHT22;45751;51.380;10.326;2022-11-25T01:41:58;4.60;99.90
59881;DHT22;45751;51.380;10.326;2022-11-25T01:44:28;4.60;99.90
59881;DHT22;45751;51.380;10.326;2022-11-25T01:47:11;4.60;99.90
59881;DHT22;45751;51.380;10.326;2022-11-25T01:50:01;4.70;99.90
59881;DHT22;45751;51.380;10.326;2022-11-25T01:52:44;4.60;99.90
59881;DHT22;45751;51.380;10.326;2022-11-25T01:55:29;4.60;99.90
59881;DHT22;45751;51.380;10.326;2022-11-25T01:58:07;4.60;99.90
59881;DHT22;45751;51.380;10.326;2022-11-25T02:00:37;4.60;99.90
59881;DHT22;45751;51.380;10.326;2022-11-25T02:03:07;4.60;99.90
59881;DHT22;45751;51.380;10.326;2022-11-25T02:06:01;4.60;99.90
59881;DHT22;45751;51.380;10.326;2022-11-25T02:08:34;4.60;99.90
59881;DHT22;45751;51.380;10.326;2022-11-25T02:11:01;4.60;99.90
59881;DHT22;45751;51.380;10.326;2022-11-25T02:13:32;4.60;99.90
59881;DHT22;45751;51.380;10.326;2022-11-25T02:15:59;4.60;99.90
59881;DHT22;45751;51.380;10.326;2022-11-25T02:18:26;4.60;99.90
59881;DHT22;45751;51.380;10.326;2022-11-25T02:20:56;4.50;99.90
59881;DHT22;45751;51.380;10.326;2022-11-25T02:24:03;4.50;99.90
59881;DHT22;45751;51.380;10.326;2022-11-25T02:26:37;4.50;99.90
59881;DHT22;45751;51.380;10.326;2022-11-25T02:29:06;4.40;99.90
59881;DHT22;45751;51.380;10.326;2022-11-25T02:31:33;4.40;99.90
59881;DHT22;45751;51.380;10.326;2022-11-25T02:34:04;4.40;99.90
59881;DHT22;45751;51.380;10.326;2022-11-25T02:36:33;4.30;99.90
59881;DHT22;45751;51.380;10.326;2022-11-25T02:39:03;4.30;99.90
59881;DHT22;45751;51.380;10.326;2022-11-25T02:41:57;4.30;99.90
59881;DHT22;45751;51.380;10.326;2022-11-25T02:44:26;4.30;99.90
59881;DHT22;45751;51.380;10.326;2022-11-25T02:46:54;4.20;99.90
59881;DHT22;45751;51.380;10.326;2022-11-25T02:49:21;4.20;99.90
59881;DHT22;45751;51.380;10.326;2022-11-25T02:51:51;4.20;99.90
59881;DHT22;45751;51.380;10.326;2022-11-25T02:54:20;4.20;99.90
59881;DHT22;45751;51.380;10.326;2022-11-25T02:56:48;4.20;99.90
59881;DHT22;45751;51.380;10.326;2022-11-25T02:59:16;4.20;99.90
59881;DHT22;45751;51.380;10.326;2022-11-25T03:01:44;4.20;99.90
59881;DHT22;45751;51.380;10.326;2022-11-25T03:04:12;4.20;99.90
59881;DHT22;45751;51.380;10.326;2022-11-25T03:06:40;4.20;99.90
59881;DHT22;45751;51.380;10.326;2022-11-25T03:09:09;4.10;99.90
59881;DHT22;45751;51.380;10.326;2022-11-25T03:11:37;4.10;99.90
59881;DHT22;45751;51.380;10.326;2022-11-25T03:14:23;4.20;99.90
59881;DHT22;45751;51.380;10.326;2022-11-25T03:16:50;4.10;99.90
59881;DHT22;45751;51.380;10.326;2022-11-25T03:19:17;4.10;99.90
59881;DHT22;45751;51.380;10.326;2022-11-25T03:21:44;4.10;99.90
59881;DHT22;45751;51.380;10.326;2022-11-25T03:24:12;4.20;99.90
59881;DHT22;45751;51.380;10.326;2022-11-25T03:26:39;4.20;99.90
59881;DHT22;45751;51.380;10.326;2022-11-25T03:29:07;4.20;99.90
59881;DHT22;45751;51.380;10.326;2022-11-25T03:31:34;4.20;99.90
59881;DHT22;45751;51.380;10.326;2022-11-25T03:34:08;4.20;99.90
59881;DHT22;45751;51.380;10.326;2022-11-25T03:36:35;4.20;99.90
59881;DHT22;45751;51.380;10.326;2022-11-25T03:39:02;4.30;99.90
59881;DHT22;45751;51.380;10.326;2022-11-25T03:41:29;4.20;99.90
59881;DHT22;45751;51.380;10.326;2022-11-25T03:43:56;4.30;99.90
59881;DHT22;45751;51.380;10.326;2022-11-25T03:46:25;4.20;99.90
59881;DHT22;45751;51.380;10.326;2022-11-25T03:48:53;4.20;99.90
59881;DHT22;45751;51.380;10.326;2022-11-25T03:51:21;4.20;99.90
59881;DHT22;45751;51.380;10.326;2022-11-25T03:53:48;4.20;99.90
59881;DHT22;45751;51.380;10.326;2022-11-25T03:56:17;4.20;99.90
59881;DHT22;45751;51.380;10.326;2022-11-25T03:58:44;4.20;99.90
59881;DHT22;45751;51.380;10.326;2022-11-25T04:01:12;4.20;99.90
59881;DHT22;45751;51.380;10.326;2022-11-25T04:03:39;4.20;99.90
59881;DHT22;45751;51.380;10.326;2022-11-25T04:06:08;4.20;99.90
59881;DHT22;45751;51.380;10.326;2022-11-25T04:08:35;4.20;99.90
59881;DHT22;45751;51.380;10.326;2022-11-25T04:11:02;4.20;99.90
59881;DHT22;45751;51.380;10.326;2022-11-25T04:13:31;4.20;99.90
59881;DHT22;45751;51.380;10.326;2022-11-25T04:16:00;4.20;99.90
59881;DHT22;45751;51.380;10.326;2022-11-25T04:18:27;4.20;99.90
59881;DHT22;45751;51.380;10.326;2022-11-25T04:20:57;4.20;99.90
59881;DHT22;45751;51.380;10.326;2022-11-25T04:23:24;4.20;99.90
59881;DHT22;45751;51.380;10.326;2022-11-25T04:25:58;4.20;99.90
59881;DHT22;45751;51.380;10.326;2022-11-25T04:28:33;4.20;99.90
59881;DHT22;45751;51.380;10.326;2022-11-25T04:31:06;4.20;99.90
59881;DHT22;45751;51.380;10.326;2022-11-25T04:33:36;4.20;99.90
59881;DHT22;45751;51.380;10.326;2022-11-25T04:36:04;4.20;99.90
59881;DHT22;45751;51.380;10.326;2022-11-25T04:38:33;4.10;99.90
59881;DHT22;45751;51.380;10.326;2022-11-25T04:41:01;4.10;99.90
59881;DHT22;45751;51.380;10.326;2022-11-25T04:43:35;4.10;99.90
59881;DHT22;45751;51.380;10.326;2022-11-25T04:46:16;4.10;99.90
59881;DHT22;45751;51.380;10.326;2022-11-25T04:48:47;4.10;99.90
59881;DHT22;45751;51.380;10.326;2022-11-25T04:51:16;4.10;99.90
59881;DHT22;45751;51.380;10.326;2022-11-25T04:53:44;4.10;99.90
59881;DHT22;45751;51.380;10.326;2022-11-25T04:56:18;4.10;99.90
59881;DHT22;45751;51.380;10.326;2022-11-25T04:58:49;4.10;99.90
59881;DHT22;45751;51.380;10.326;2022-11-25T05:01:38;4.10;99.90
59881;DHT22;45751;51.380;10.326;2022-11-25T05:04:19;4.10;99.90
59881;DHT22;45751;51.380;10.326;2022-11-25T05:06:49;4.10;99.90
59881;DHT22;45751;51.380;10.326;2022-11-25T05:09:17;4.00;99.90
59881;DHT22;45751;51.380;10.326;2022-11-25T05:11:57;4.00;99.90
59881;DHT22;45751;51.380;10.326;2022-11-25T05:14:27;4.00;99.90
59881;DHT22;45751;51.380;10.326;2022-11-25T05:16:54;4.00;99.90
59881;DHT22;45751;51.380;10.326;2022-11-25T05:19:22;4.00;99.90
59881;DHT22;45751;51.380;10.326;2022-11-25T05:21:49;4.00;99.90
59881;DHT22;45751;51.380;10.326;2022-11-25T05:24:18;4.00;99.90
59881;DHT22;45751;51.380;10.326;2022-11-25T05:26:49;4.00;99.90
59881;DHT22;45751;51.380;10.326;2022-11-25T05:29:17;4.00;99.90
59881;DHT22;45751;51.380;10.326;2022-11-25T05:31:45;3.90;99.90
59881;DHT22;45751;51.380;10.326;2022-11-25T05:34:15;3.90;99.90
59881;DHT22;45751;51.380;10.326;2022-11-25T05:36:43;3.90;99.90
59881;DHT22;45751;51.380;10.326;2022-11-25T05:39:10;3.90;99.90
59881;DHT22;45751;51.380;10.326;2022-11-25T05:42:05;3.90;99.90
59881;DHT22;45751;51.380;10.326;2022-11-25T05:44:32;3.90;99.90
59881;DHT22;45751;51.380;10.326;2022-11-25T05:47:01;3.90;99.90
59881;DHT22;45751;51.380;10.326;2022-11-25T05:49:28;3.80;99.90
59881;DHT22;45751;51.380;10.326;2022-11-25T05:51:56;3.90;99.90
59881;DHT22;45751;51.380;10.326;2022-11-25T05:54:28;3.80;99.90
59881;DHT22;45751;51.380;10.326;2022-11-25T05:56:57;3.80;99.90
59881;DHT22;45751;51.380;10.326;2022-11-25T05:59:31;3.80;99.90
59881;DHT22;45751;51.380;10.326;2022-11-25T06:02:04;3.80;99.90
59881;DHT22;45751;51.380;10.326;2022-11-25T06:04:32;3.80;99.90
59881;DHT22;45751;51.380;10.326;2022-11-25T06:07:01;3.80;99.90
59881;DHT22;45751;51.380;10.326;2022-11-25T06:09:29;3.80;99.90
59881;DHT22;45751;51.380;10.326;2022-11-25T06:11:56;3.80;99.90
59881;DHT22;45751;51.380;10.326;2022-11-25T06:14:24;3.80;99.90
59881;DHT22;45751;51.380;10.326;2022-11-25T06:16:51;3.80;99.90
59881;DHT22;45751;51.380;10.326;2022-11-25T06:19:27;3.80;99.90
59881;DHT22;45751;51.380;10.326;2022-11-25T06:21:57;3.80;99.90
59881;DHT22;45751;51.380;10.326;2022-11-25T06:24:26;3.80;99.90
59881;DHT22;45751;51.380;10.326;2022-11-25T06:26:59;3.80;99.90
59881;DHT22;45751;51.380;10.326;2022-11-25T06:29:31;3.80;99.90
59881;DHT22;45751;51.380;10.326;2022-11-25T06:31:58;3.80;99.90
59881;DHT22;45751;51.380;10.326;2022-11-25T06:34:56;3.80;99.90
59881;DHT22;45751;51.380;10.326;2022-11-25T06:37:34;3.80;99.90
59881;DHT22;45751;51.380;10.326;2022-11-25T06:40:04;3.80;99.90
59881;DHT22;45751;51.380;10.326;2022-11-25T06:42:31;3.80;99.90
59881;DHT22;45751;51.380;10.326;2022-11-25T06:44:59;3.90;99.90
59881;DHT22;45751;51.380;10.326;2022-11-25T06:47:26;3.90;99.90
59881;DHT22;45751;51.380;10.326;2022-11-25T06:49:53;3.90;99.90
59881;DHT22;45751;51.380;10.326;2022-11-25T06:52:19;3.90;99.90
59881;DHT22;45751;51.380;10.326;2022-11-25T06:54:50;4.00;99.90
59881;DHT22;45751;51.380;10.326;2022-11-25T06:57:18;4.00;99.90
59881;DHT22;45751;51.380;10.326;2022-11-25T06:59:46;4.00;99.90
59881;DHT22;45751;51.380;10.326;2022-11-25T07:02:13;4.00;99.90
59881;DHT22;45751;51.380;10.326;2022-11-25T07:04:40;4.00;99.90
59881;DHT22;45751;51.380;10.326;2022-11-25T07:07:07;4.10;99.90
59881;DHT22;45751;51.380;10.326;2022-11-25T07:09:36;4.10;99.90
59881;DHT22;45751;51.380;10.326;2022-11-25T07:12:04;4.10;99.90
59881;DHT22;45751;51.380;10.326;2022-11-25T07:14:32;4.10;99.90
59881;DHT22;45751;51.380;10.326;2022-11-25T07:16:59;4.10;99.90
59881;DHT22;45751;51.380;10.326;2022-11-25T07:19:25;4.10;99.90
59881;DHT22;45751;51.380;10.326;2022-11-25T07:21:52;4.10;99.90
59881;DHT22;45751;51.380;10.326;2022-11-25T07:24:19;4.20;99.90
59881;DHT22;45751;51.380;10.326;2022-11-25T07:26:46;4.20;99.90
59881;DHT22;45751;51.380;10.326;2022-11-25T07:29:15;4.20;99.90
59881;DHT22;45751;51.380;10.326;2022-11-25T07:32:02;4.20;99.90
59881;DHT22;45751;51.380;10.326;2022-11-25T07:34:39;4.20;99.90
59881;DHT22;45751;51.380;10.326;2022-11-25T07:37:06;4.20;99.90
59881;DHT22;45751;51.380;10.326;2022-11-25T07:39:35;4.30;99.90
59881;DHT22;45751;51.380;10.326;2022-11-25T07:42:02;4.30;99.90
59881;DHT22;45751;51.380;10.326;2022-11-25T07:44:29;4.30;99.90
59881;DHT22;45751;51.380;10.326;2022-11-25T07:47:10;4.30;99.90
59881;DHT22;45751;51.380;10.326;2022-11-25T07:49:38;4.30;99.90
59881;DHT22;45751;51.380;10.326;2022-11-25T07:52:05;4.30;99.90
59881;DHT22;45751;51.380;10.326;2022-11-25T07:54:33;4.30;99.90
59881;DHT22;45751;51.380;10.326;2022-11-25T07:57:00;4.30;99.90
59881;DHT22;45751;51.380;10.326;2022-11-25T07:59:28;4.50;99.90
59881;DHT22;45751;51.380;10.326;2022-11-25T08:01:55;4.40;99.90
59881;DHT22;45751;51.380;10.326;2022-11-25T08:04:22;4.40;99.90
59881;DHT22;45751;51.380;10.326;2022-11-25T08:06:51;4.40;99.90
59881;DHT22;45751;51.380;10.326;2022-11-25T08:09:21;4.40;99.90
59881;DHT22;45751;51.380;10.326;2022-11-25T08:11:51;4.40;99.90
59881;DHT22;45751;51.380;10.326;2022-11-25T08:14:18;4.40;99.90
59881;DHT22;45751;51.380;10.326;2022-11-25T08:16:48;4.40;99.90
59881;DHT22;45751;51.380;10.326;2022-11-25T08:19:15;4.40;99.90
59881;DHT22;45751;51.380;10.326;2022-11-25T08:21:43;4.50;99.90
59881;DHT22;45751;51.380;10.326;2022-11-25T08:24:17;4.50;99.90
59881;DHT22;45751;51.380;10.326;2022-11-25T08:26:44;4.50;99.90
59881;DHT22;45751;51.380;10.326;2022-11-25T08:29:14;4.60;99.90
59881;DHT22;45751;51.380;10.326;2022-11-25T08:31:42;4.60;99.90
59881;DHT22;45751;51.380;10.326;2022-11-25T08:34:17;4.60;99.90
59881;DHT22;45751;51.380;10.326;2022-11-25T08:36:50;4.60;99.90
59881;DHT22;45751;51.380;10.326;2022-11-25T08:39:18;4.60;99.90
59881;DHT22;45751;51.380;10.326;2022-11-25T08:42:07;4.60;99.90
59881;DHT22;45751;51.380;10.326;2022-11-25T08:44:35;4.70;99.90
59881;DHT22;45751;51.380;10.326;2022-11-25T08:47:02;4.60;99.90
59881;DHT22;45751;51.380;10.326;2022-11-25T08:49:29;4.70;99.90
59881;DHT22;45751;51.380;10.326;2022-11-25T08:52:00;4.70;99.90
59881;DHT22;45751;51.380;10.326;2022-11-25T08:54:28;4.70;99.90
59881;DHT22;45751;51.380;10.326;2022-11-25T08:56:56;4.80;99.90
59881;DHT22;45751;51.380;10.326;2022-11-25T08:59:23;4.80;99.90
59881;DHT22;45751;51.380;10.326;2022-11-25T09:01:50;4.90;99.90
59881;DHT22;45751;51.380;10.326;2022-11-25T09:04:20;4.80;99.90
59881;DHT22;45751;51.380;10.326;2022-11-25T09:06:47;4.90;99.90
59881;DHT22;45751;51.380;10.326;2022-11-25T09:09:14;4.90;99.90
59881;DHT22;45751;51.380;10.326;2022-11-25T09:11:42;4.90;99.90
59881;DHT22;45751;51.380;10.326;2022-11-25T09:14:09;4.90;99.90
59881;DHT22;45751;51.380;10.326;2022-11-25T09:16:36;5.00;99.90
59881;DHT22;45751;51.380;10.326;2022-11-25T09:19:05;5.00;99.90
59881;DHT22;45751;51.380;10.326;2022-11-25T09:21:32;5.00;99.90
59881;DHT22;45751;51.380;10.326;2022-11-25T09:23:59;5.00;99.90
59881;DHT22;45751;51.380;10.326;2022-11-25T09:26:30;5.10;99.90
59881;DHT22;45751;51.380;10.326;2022-11-25T09:29:01;5.10;99.90
59881;DHT22;45751;51.380;10.326;2022-11-25T09:31:30;5.10;99.90
59881;DHT22;45751;51.380;10.326;2022-11-25T09:33:57;5.10;99.90
59881;DHT22;45751;51.380;10.326;2022-11-25T09:36:24;5.20;99.90
59881;DHT22;45751;51.380;10.326;2022-11-25T09:38:53;5.20;99.90
59881;DHT22;45751;51.380;10.326;2022-11-25T09:55:53;5.40;99.90
59881;DHT22;45751;51.380;10.326;2022-11-25T09:58:34;5.30;99.90
59881;DHT22;45751;51.380;10.326;2022-11-25T10:01:06;5.40;99.90
59881;DHT22;45751;51.380;10.326;2022-11-25T10:03:45;5.40;99.90
59881;DHT22;45751;51.380;10.326;2022-11-25T10:06:30;5.40;99.90
59881;DHT22;45751;51.380;10.326;2022-11-25T10:09:12;5.40;99.90
59881;DHT22;45751;51.380;10.326;2022-11-25T10:14:41;5.50;99.90
59881;DHT22;45751;51.380;10.326;2022-11-25T10:22:56;5.50;99.90
59881;DHT22;45751;51.380;10.326;2022-11-25T10:25:30;5.60;99.90
59881;DHT22;45751;51.380;10.326;2022-11-25T10:31:15;5.60;99.90
59881;DHT22;45751;51.380;10.326;2022-11-25T10:33:53;5.60;99.90
59881;DHT22;45751;51.380;10.326;2022-11-25T10:36:28;5.60;99.90
59881;DHT22;45751;51.380;10.326;2022-11-25T10:41:42;5.70;99.90
59881;DHT22;45751;51.380;10.326;2022-11-25T10:44:26;5.60;99.90
59881;DHT22;45751;51.380;10.326;2022-11-25T10:47:42;5.60;99.90
59881;DHT22;45751;51.380;10.326;2022-11-25T10:50:06;5.60;99.90
59881;DHT22;45751;51.380;10.326;2022-11-25T10:52:40;5.70;99.90
59881;DHT22;45751;51.380;10.326;2022-11-25T10:55:19;5.70;99.90
59881;DHT22;45751;51.380;10.326;2022-11-25T10:57:47;5.70;99.90
59881;DHT22;45751;51.380;10.326;2022-11-25T11:00:38;5.70;99.90
59881;DHT22;45751;51.380;10.326;2022-11-25T11:03:20;5.70;99.90
59881;DHT22;45751;51.380;10.326;2022-11-25T11:05:52;5.70;99.90
59881;DHT22;45751;51.380;10.326;2022-11-25T11:13:36;5.70;99.90
59881;DHT22;45751;51.380;10.326;2022-11-25T11:18:54;5.70;99.90
59881;DHT22;45751;51.380;10.326;2022-11-25T11:21:34;5.70;99.90
59881;DHT22;45751;51.380;10.326;2022-11-25T11:24:13;5.70;99.90
59881;DHT22;45751;51.380;10.326;2022-11-25T11:27:02;5.80;99.90
59881;DHT22;45751;51.380;10.326;2022-11-25T11:29:31;5.80;99.90
59881;DHT22;45751;51.380;10.326;2022-11-25T11:32:00;5.90;99.90
59881;DHT22;45751;51.380;10.326;2022-11-25T11:48:38;6.00;99.90
59881;DHT22;45751;51.380;10.326;2022-11-25T11:59:20;6.00;99.90
59881;DHT22;45751;51.380;10.326;2022-11-25T12:05:05;6.00;99.90
59881;DHT22;45751;51.380;10.326;2022-11-25T12:10:39;6.10;99.90
59881;DHT22;45751;51.380;10.326;2022-11-25T12:24:55;6.10;99.90
59881;DHT22;45751;51.380;10.326;2022-11-25T12:27:40;6.10;99.90
59881;DHT22;45751;51.380;10.326;2022-11-25T12:30:21;6.20;99.90
59881;DHT22;45751;51.380;10.326;2022-11-25T12:38:25;6.20;99.90
59881;DHT22;45751;51.380;10.326;2022-11-25T12:44:02;6.20;99.90
59881;DHT22;45751;51.380;10.326;2022-11-25T12:46:46;6.20;99.90
59881;DHT22;45751;51.380;10.326;2022-11-25T12:49:19;6.30;99.90
59881;DHT22;45751;51.380;10.326;2022-11-25T12:54:46;6.30;99.90
59881;DHT22;45751;51.380;10.326;2022-11-25T13:00:22;6.30;99.90
59881;DHT22;45751;51.380;10.326;2022-11-25T13:13:00;6.40;99.90
59881;DHT22;45751;51.380;10.326;2022-11-25T13:15:24;6.40;99.90
59881;DHT22;45751;51.380;10.326;2022-11-25T13:18:07;6.30;99.90
59881;DHT22;45751;51.380;10.326;2022-11-25T13:20:47;6.40;99.90
59881;DHT22;45751;51.380;10.326;2022-11-25T13:25:46;6.30;99.90
59881;DHT22;45751;51.380;10.326;2022-11-25T13:28:34;6.30;99.90
59881;DHT22;45751;51.380;10.326;2022-11-25T13:36:42;6.30;99.90
59881;DHT22;45751;51.380;10.326;2022-11-25T13:39:16;6.30;99.90
59881;DHT22;45751;51.380;10.326;2022-11-25T13:42:33;6.30;99.90
59881;DHT22;45751;51.380;10.326;2022-11-25T13:44:52;6.40;99.90
59881;DHT22;45751;51.380;10.326;2022-11-25T13:49:56;6.40;99.90
59881;DHT22;45751;51.380;10.326;2022-11-25T13:52:47;6.40;99.90
59881;DHT22;45751;51.380;10.326;2022-11-25T13:57:48;6.40;99.90
59881;DHT22;45751;51.380;10.326;2022-11-25T14:12:00;6.40;99.90
59881;DHT22;45751;51.380;10.326;2022-11-25T14:14:54;6.40;99.90
59881;DHT22;45751;51.380;10.326;2022-11-25T14:18:40;6.40;99.90
59881;DHT22;45751;51.380;10.326;2022-11-25T14:26:32;6.40;99.90
59881;DHT22;45751;51.380;10.326;2022-11-25T14:29:35;6.50;99.90
59881;DHT22;45751;51.380;10.326;2022-11-25T14:32:12;6.50;99.90
59881;DHT22;45751;51.380;10.326;2022-11-25T14:34:46;6.50;99.90
59881;DHT22;45751;51.380;10.326;2022-11-25T14:38:36;6.40;99.90
59881;DHT22;45751;51.380;10.326;2022-11-25T14:40:53;6.50;99.90
59881;DHT22;45751;51.380;10.326;2022-11-25T14:43:24;6.40;99.90
59881;DHT22;45751;51.380;10.326;2022-11-25T14:46:14;6.40;99.90
59881;DHT22;45751;51.380;10.326;2022-11-25T14:48:43;6.40;99.90
59881;DHT22;45751;51.380;10.326;2022-11-25T14:51:11;6.40;99.90
59881;DHT22;45751;51.380;10.326;2022-11-25T14:53:47;6.40;99.90
59881;DHT22;45751;51.380;10.326;2022-11-25T14:56:21;6.40;99.90
59881;DHT22;45751;51.380;10.326;2022-11-25T14:58:53;6.50;99.90
59881;DHT22;45751;51.380;10.326;2022-11-25T15:01:25;6.50;99.90
59881;DHT22;45751;51.380;10.326;2022-11-25T15:04:11;6.40;99.90
59881;DHT22;45751;51.380;10.326;2022-11-25T15:06:51;6.40;99.90
59881;DHT22;45751;51.380;10.326;2022-11-25T15:09:25;6.40;99.90
59881;DHT22;45751;51.380;10.326;2022-11-25T15:12:16;6.40;99.90
59881;DHT22;45751;51.380;10.326;2022-11-25T15:14:52;6.40;99.90
59881;DHT22;45751;51.380;10.326;2022-11-25T15:17:30;6.40;99.90
59881;DHT22;45751;51.380;10.326;2022-11-25T15:20:03;6.40;99.90
59881;DHT22;45751;51.380;10.326;2022-11-25T15:22:35;6.40;99.90
59881;DHT22;45751;51.380;10.326;2022-11-25T15:25:11;6.40;99.90
59881;DHT22;45751;51.380;10.326;2022-11-25T15:27:48;6.40;99.90
59881;DHT22;45751;51.380;10.326;2022-11-25T15:30:21;6.30;99.90
59881;DHT22;45751;51.380;10.326;2022-11-25T15:32:50;6.30;99.90
59881;DHT22;45751;51.380;10.326;2022-11-25T15:35:20;6.30;99.90
59881;DHT22;45751;51.380;10.326;2022-11-25T15:37:50;6.30;99.90
59881;DHT22;45751;51.380;10.326;2022-11-25T15:40:33;6.20;99.90
59881;DHT22;45751;51.380;10.326;2022-11-25T15:43:06;6.20;99.90
59881;DHT22;45751;51.380;10.326;2022-11-25T15:45:45;6.20;99.90
59881;DHT22;45751;51.380;10.326;2022-11-25T15:48:16;6.20;99.90
59881;DHT22;45751;51.380;10.326;2022-11-25T15:50:45;6.20;99.90
59881;DHT22;45751;51.380;10.326;2022-11-25T15:53:22;6.20;99.90
59881;DHT22;45751;51.380;10.326;2022-11-25T15:55:59;6.20;99.90
59881;DHT22;45751;51.380;10.326;2022-11-25T15:58:29;6.20;99.90
59881;DHT22;45751;51.380;10.326;2022-11-25T16:03:50;6.20;99.90
59881;DHT22;45751;51.380;10.326;2022-11-25T16:06:27;6.10;99.90
59881;DHT22;45751;51.380;10.326;2022-11-25T16:08:59;6.10;99.90
59881;DHT22;45751;51.380;10.326;2022-11-25T16:11:27;6.10;99.90
59881;DHT22;45751;51.380;10.326;2022-11-25T16:16:52;6.00;99.90
59881;DHT22;45751;51.380;10.326;2022-11-25T16:19:25;6.00;99.90
59881;DHT22;45751;51.380;10.326;2022-11-25T16:22:03;6.00;99.90
59881;DHT22;45751;51.380;10.326;2022-11-25T16:27:22;5.90;99.90
59881;DHT22;45751;51.380;10.326;2022-11-25T16:30:16;5.90;99.90
59881;DHT22;45751;51.380;10.326;2022-11-25T16:32:47;5.90;99.90
59881;DHT22;45751;51.380;10.326;2022-11-25T16:35:16;5.90;99.90
59881;DHT22;45751;51.380;10.326;2022-11-25T16:37:45;5.90;99.90
59881;DHT22;45751;51.380;10.326;2022-11-25T16:40:16;5.80;99.90
59881;DHT22;45751;51.380;10.326;2022-11-25T16:42:47;5.80;99.90
59881;DHT22;45751;51.380;10.326;2022-11-25T16:45:21;5.80;99.90
59881;DHT22;45751;51.380;10.326;2022-11-25T16:47:48;5.80;99.90
59881;DHT22;45751;51.380;10.326;2022-11-25T16:50:17;5.80;99.90
59881;DHT22;45751;51.380;10.326;2022-11-25T16:52:46;5.80;99.90
59881;DHT22;45751;51.380;10.326;2022-11-25T16:55:13;5.80;99.90
59881;DHT22;45751;51.380;10.326;2022-11-25T16:57:41;5.80;99.90
59881;DHT22;45751;51.380;10.326;2022-11-25T17:00:13;5.80;99.90
59881;DHT22;45751;51.380;10.326;2022-11-25T17:02:42;5.80;99.90
59881;DHT22;45751;51.380;10.326;2022-11-25T17:05:21;5.80;99.90
59881;DHT22;45751;51.380;10.326;2022-11-25T17:07:50;5.80;99.90
59881;DHT22;45751;51.380;10.326;2022-11-25T17:10:19;5.70;99.90
59881;DHT22;45751;51.380;10.326;2022-11-25T17:12:47;5.70;99.90
59881;DHT22;45751;51.380;10.326;2022-11-25T17:15:29;5.70;99.90
59881;DHT22;45751;51.380;10.326;2022-11-25T17:17:57;5.80;99.90
59881;DHT22;45751;51.380;10.326;2022-11-25T17:20:24;5.70;99.90
59881;DHT22;45751;51.380;10.326;2022-11-25T17:22:52;5.70;99.90
59881;DHT22;45751;51.380;10.326;2022-11-25T17:25:24;5.70;99.90
59881;DHT22;45751;51.380;10.326;2022-11-25T17:27:54;5.60;99.90
59881;DHT22;45751;51.380;10.326;2022-11-25T17:30:25;5.60;99.90
59881;DHT22;45751;51.380;10.326;2022-11-25T17:33:05;5.50;99.90
59881;DHT22;45751;51.380;10.326;2022-11-25T17:35:35;5.50;99.90
59881;DHT22;45751;51.380;10.326;2022-11-25T17:38:11;5.40;99.90
59881;DHT22;45751;51.380;10.326;2022-11-25T17:40:43;5.40;99.90
59881;DHT22;45751;51.380;10.326;2022-11-25T17:43:14;5.40;99.90
59881;DHT22;45751;51.380;10.326;2022-11-25T17:45:46;5.40;99.90
59881;DHT22;45751;51.380;10.326;2022-11-25T17:48:16;5.30;99.90
59881;DHT22;45751;51.380;10.326;2022-11-25T17:50:46;5.30;99.90
59881;DHT22;45751;51.380;10.326;2022-11-25T17:53:13;5.40;99.90
59881;DHT22;45751;51.380;10.326;2022-11-25T17:55:41;5.30;99.90
59881;DHT22;45751;51.380;10.326;2022-11-25T17:58:10;5.30;99.90
59881;DHT22;45751;51.380;10.326;2022-11-25T18:00:42;5.30;99.90
59881;DHT22;45751;51.380;10.326;2022-11-25T18:03:11;5.30;99.90
59881;DHT22;45751;51.380;10.326;2022-11-25T18:05:38;5.30;99.90
59881;DHT22;45751;51.380;10.326;2022-11-25T18:08:06;5.30;99.90
59881;DHT22;45751;51.380;10.326;2022-11-25T18:10:34;5.30;99.90
59881;DHT22;45751;51.380;10.326;2022-11-25T18:13:04;5.30;99.90
59881;DHT22;45751;51.380;10.326;2022-11-25T18:15:32;5.30;99.90
59881;DHT22;45751;51.380;10.326;2022-11-25T18:18:10;5.30;99.90
59881;DHT22;45751;51.380;10.326;2022-11-25T18:20:44;5.30;99.90
59881;DHT22;45751;51.380;10.326;2022-11-25T18:23:11;5.20;99.90
59881;DHT22;45751;51.380;10.326;2022-11-25T18:25:39;5.20;99.90